<?xml version="1.0" encoding="UTF-8" standalone="no" ?>
<gpx xmlns="http://www.topografix.com/GPX/1/1" xmlns:xsi="http://www.w3.org/2001/XMLSchema-instance" xsi:schemaLocation="http://www.topografix.com/GPX/1/1 http://www.topografix.com/GPX/1/1/gpx.xsd" version="1.1" creator="VisuGPX - https://www.visugpx.com">
  <metadata>
    <name>abbaretz_5Tresors_TourArche_22km</name>
    <desc><![CDATA[gnerando idor: 7059957_7059979_7060017_9914522]]></desc>
  </metadata>
  <trk>
    <name><![CDATA[Abbaretz_5TrésorsTourArche_22km-9914522]]></name>
    <extensions>
      <line xmlns="http://www.topografix.com/GPX/gpx_style/0/2">
        <color>0000FF</color>
        <width>4</width>
      </line>
    </extensions>
    <trkseg>
      <trkpt lat="47.5554" lon="-1.47428">
        <ele>82</ele>
        <time>2022-11-29T17:56:09Z</time>
      </trkpt>
      <trkpt lat="47.55523" lon="-1.47052">
        <ele>79</ele>
        <time>2022-11-29T18:01:48Z</time>
      </trkpt>
      <trkpt lat="47.55736" lon="-1.46955">
        <ele>74</ele>
        <time>2022-11-29T18:06:46Z</time>
      </trkpt>
      <trkpt lat="47.55851" lon="-1.46991">
        <ele>65</ele>
        <time>2022-11-29T18:09:23Z</time>
      </trkpt>
      <trkpt lat="47.56244" lon="-1.46688">
        <ele>53</ele>
        <time>2022-11-29T18:19:14Z</time>
      </trkpt>
      <trkpt lat="47.56432" lon="-1.46482">
        <ele>50</ele>
        <time>2022-11-29T18:24:26Z</time>
      </trkpt>
      <trkpt lat="47.5645" lon="-1.457">
        <ele>59</ele>
        <time>2022-11-29T18:36:10Z</time>
      </trkpt>
      <trkpt lat="47.56554" lon="-1.45108">
        <ele>56</ele>
        <time>2022-11-29T18:45:21Z</time>
      </trkpt>
      <trkpt lat="47.56635" lon="-1.44379">
        <ele>57</ele>
        <time>2022-11-29T18:56:26Z</time>
      </trkpt>
      <trkpt lat="47.56543" lon="-1.44344">
        <ele>63</ele>
        <time>2022-11-29T18:58:33Z</time>
      </trkpt>
      <trkpt lat="47.5649" lon="-1.44249">
        <ele>69</ele>
        <time>2022-11-29T19:00:24Z</time>
      </trkpt>
      <trkpt lat="47.56173" lon="-1.44147">
        <ele>84</ele>
        <time>2022-11-29T19:07:37Z</time>
      </trkpt>
      <trkpt lat="47.56187" lon="-1.43948">
        <ele>82</ele>
        <time>2022-11-29T19:10:37Z</time>
      </trkpt>
      <trkpt lat="47.56063" lon="-1.43912">
        <ele>78</ele>
        <time>2022-11-29T19:13:26Z</time>
      </trkpt>
      <trkpt lat="47.56053" lon="-1.44009">
        <ele>80</ele>
        <time>2022-11-29T19:14:54Z</time>
      </trkpt>
      <trkpt lat="47.55805" lon="-1.43973">
        <ele>63</ele>
        <time>2022-11-29T19:20:27Z</time>
      </trkpt>
      <trkpt lat="47.55639" lon="-1.4405">
        <ele>55</ele>
        <time>2022-11-29T19:24:19Z</time>
      </trkpt>
      <trkpt lat="47.55577" lon="-1.44034">
        <ele>53</ele>
        <time>2022-11-29T19:25:43Z</time>
      </trkpt>
      <trkpt lat="47.55433" lon="-1.43922">
        <ele>51</ele>
        <time>2022-11-29T19:29:20Z</time>
      </trkpt>
      <trkpt lat="47.55343" lon="-1.43743">
        <ele>48</ele>
        <time>2022-11-29T19:32:41Z</time>
      </trkpt>
      <trkpt lat="47.55116" lon="-1.43902">
        <ele>45</ele>
        <time>2022-11-29T19:38:16Z</time>
      </trkpt>
      <trkpt lat="47.54923" lon="-1.44514">
        <ele>52</ele>
        <time>2022-11-29T19:48:24Z</time>
      </trkpt>
      <trkpt lat="47.54613" lon="-1.44397">
        <ele>43</ele>
        <time>2022-11-29T19:55:31Z</time>
      </trkpt>
      <trkpt lat="47.53986" lon="-1.43958">
        <ele>41</ele>
        <time>2022-11-29T20:10:57Z</time>
      </trkpt>
      <trkpt lat="47.54065" lon="-1.44473">
        <ele>45</ele>
        <time>2022-11-29T20:18:52Z</time>
      </trkpt>
      <trkpt lat="47.54024" lon="-1.44652">
        <ele>48</ele>
        <time>2022-11-29T20:21:43Z</time>
      </trkpt>
      <trkpt lat="47.54065" lon="-1.44856">
        <ele>49</ele>
        <time>2022-11-29T20:24:55Z</time>
      </trkpt>
      <trkpt lat="47.53976" lon="-1.45188">
        <ele>47</ele>
        <time>2022-11-29T20:30:16Z</time>
      </trkpt>
      <trkpt lat="47.53638" lon="-1.45463">
        <ele>42</ele>
        <time>2022-11-29T20:38:51Z</time>
      </trkpt>
      <trkpt lat="47.53362" lon="-1.45713">
        <ele>46</ele>
        <time>2022-11-29T20:46:03Z</time>
      </trkpt>
      <trkpt lat="47.53266" lon="-1.45882">
        <ele>44</ele>
        <time>2022-11-29T20:49:22Z</time>
      </trkpt>
      <trkpt lat="47.53417" lon="-1.45994">
        <ele>53</ele>
        <time>2022-11-29T20:53:07Z</time>
      </trkpt>
      <trkpt lat="47.53504" lon="-1.46168">
        <ele>57</ele>
        <time>2022-11-29T20:56:22Z</time>
      </trkpt>
      <trkpt lat="47.53659" lon="-1.46311">
        <ele>55</ele>
        <time>2022-11-29T21:00:26Z</time>
      </trkpt>
      <trkpt lat="47.538" lon="-1.46448">
        <ele>52</ele>
        <time>2022-11-29T21:04:11Z</time>
      </trkpt>
      <trkpt lat="47.54093" lon="-1.46494">
        <ele>52</ele>
        <time>2022-11-29T21:10:44Z</time>
      </trkpt>
      <trkpt lat="47.54031" lon="-1.47418">
        <ele>51</ele>
        <time>2022-11-29T21:24:40Z</time>
      </trkpt>
      <trkpt lat="47.54041" lon="-1.47821">
        <ele>54</ele>
        <time>2022-11-29T21:30:44Z</time>
      </trkpt>
      <trkpt lat="47.53979" lon="-1.48367">
        <ele>54</ele>
        <time>2022-11-29T21:39:03Z</time>
      </trkpt>
      <trkpt lat="47.5452" lon="-1.48837">
        <ele>59</ele>
        <time>2022-11-29T21:52:59Z</time>
      </trkpt>
      <trkpt lat="47.54702" lon="-1.48888">
        <ele>58</ele>
        <time>2022-11-29T21:57:07Z</time>
      </trkpt>
      <trkpt lat="47.55033" lon="-1.48862">
        <ele>60</ele>
        <time>2022-11-29T22:04:29Z</time>
      </trkpt>
      <trkpt lat="47.55309" lon="-1.48776">
        <ele>69</ele>
        <time>2022-11-29T22:10:45Z</time>
      </trkpt>
      <trkpt lat="47.5556" lon="-1.48893">
        <ele>76</ele>
        <time>2022-11-29T22:16:36Z</time>
      </trkpt>
      <trkpt lat="47.56056" lon="-1.49179">
        <ele>50</ele>
        <time>2022-11-29T22:28:27Z</time>
      </trkpt>
      <trkpt lat="47.57227" lon="-1.49168">
        <ele>36</ele>
        <time>2022-11-29T22:54:29Z</time>
      </trkpt>
      <trkpt lat="47.57347" lon="-1.49056">
        <ele>41</ele>
        <time>2022-11-29T22:57:39Z</time>
      </trkpt>
      <trkpt lat="47.57327" lon="-1.48929">
        <ele>47</ele>
        <time>2022-11-29T22:59:36Z</time>
      </trkpt>
      <trkpt lat="47.57396" lon="-1.48658">
        <ele>55</ele>
        <time>2022-11-29T23:03:57Z</time>
      </trkpt>
      <trkpt lat="47.57537" lon="-1.48571">
        <ele>59</ele>
        <time>2022-11-29T23:07:21Z</time>
      </trkpt>
      <trkpt lat="47.57537" lon="-1.48403">
        <ele>61</ele>
        <time>2022-11-29T23:09:52Z</time>
      </trkpt>
      <trkpt lat="47.57582" lon="-1.48255">
        <ele>63</ele>
        <time>2022-11-29T23:12:18Z</time>
      </trkpt>
      <trkpt lat="47.57638" lon="-1.47054">
        <ele>68</ele>
        <time>2022-11-29T23:30:22Z</time>
      </trkpt>
      <trkpt lat="47.57691" lon="-1.46723">
        <ele>64</ele>
        <time>2022-11-29T23:35:28Z</time>
      </trkpt>
      <trkpt lat="47.57836" lon="-1.46274">
        <ele>70</ele>
        <time>2022-11-29T23:42:56Z</time>
      </trkpt>
      <trkpt lat="47.57703" lon="-1.46165">
        <ele>62</ele>
        <time>2022-11-29T23:46:19Z</time>
      </trkpt>
      <trkpt lat="47.57522" lon="-1.46084">
        <ele>51</ele>
        <time>2022-11-29T23:50:31Z</time>
      </trkpt>
      <trkpt lat="47.57849" lon="-1.4625">
        <ele>71</ele>
        <time>2022-11-29T23:58:13Z</time>
      </trkpt>
      <trkpt lat="47.57668" lon="-1.46857">
        <ele>67</ele>
        <time>2022-11-30T00:08:10Z</time>
      </trkpt>
      <trkpt lat="47.57652" lon="-1.47224">
        <ele>66</ele>
        <time>2022-11-30T00:13:41Z</time>
      </trkpt>
      <trkpt lat="47.57591" lon="-1.47974">
        <ele>66</ele>
        <time>2022-11-30T00:25:01Z</time>
      </trkpt>
      <trkpt lat="47.56821" lon="-1.4776">
        <ele>39</ele>
        <time>2022-11-30T00:42:27Z</time>
      </trkpt>
      <trkpt lat="47.55714" lon="-1.46947">
        <ele>75</ele>
        <time>2022-11-30T01:09:55Z</time>
      </trkpt>
      <trkpt lat="47.55544" lon="-1.47065">
        <ele>80</ele>
        <time>2022-11-30T01:14:06Z</time>
      </trkpt>
      <trkpt lat="47.55552" lon="-1.47408">
        <ele>82</ele>
        <time>2022-11-30T01:19:15Z</time>
      </trkpt>
    </trkseg>
  </trk>
</gpx>